sensor_id;sensor_type;location;lat;lon;timestamp;P1;durP1;ratioP1;P2;durP2;ratioP2
79361;SDS011;68830;47.566;19.012;2023-05-10T00:00:21;2.63;;;2.15;;
79361;SDS011;68830;47.566;19.012;2023-05-10T00:03:23;2.58;;;2.35;;
79361;SDS011;68830;47.566;19.012;2023-05-10T00:06:26;3.17;;;2.00;;
79361;SDS011;68830;47.566;19.012;2023-05-10T00:09:30;5.05;;;2.30;;
79361;SDS011;68830;47.566;19.012;2023-05-10T00:12:32;4.05;;;2.58;;
79361;SDS011;68830;47.566;19.012;2023-05-10T00:15:34;2.83;;;2.20;;
79361;SDS011;68830;47.566;19.012;2023-05-10T00:18:36;2.58;;;2.17;;
79361;SDS011;68830;47.566;19.012;2023-05-10T00:21:38;3.65;;;2.40;;
79361;SDS011;68830;47.566;19.012;2023-05-10T00:24:41;3.65;;;2.33;;
79361;SDS011;68830;47.566;19.012;2023-05-10T00:27:43;5.43;;;2.50;;
79361;SDS011;68830;47.566;19.012;2023-05-10T00:30:45;3.65;;;2.40;;
79361;SDS011;68830;47.566;19.012;2023-05-10T00:33:46;6.93;;;3.08;;
79361;SDS011;68830;47.566;19.012;2023-05-10T00:36:48;3.92;;;2.50;;
79361;SDS011;68830;47.566;19.012;2023-05-10T00:39:52;4.43;;;2.22;;
79361;SDS011;68830;47.566;19.012;2023-05-10T00:42:54;2.92;;;2.50;;
79361;SDS011;68830;47.566;19.012;2023-05-10T00:45:57;3.53;;;3.08;;
79361;SDS011;68830;47.566;19.012;2023-05-10T00:48:59;3.10;;;2.65;;
79361;SDS011;68830;47.566;19.012;2023-05-10T00:52:01;4.18;;;2.72;;
79361;SDS011;68830;47.566;19.012;2023-05-10T00:55:07;3.75;;;2.30;;
79361;SDS011;68830;47.566;19.012;2023-05-10T00:58:10;3.22;;;2.92;;
79361;SDS011;68830;47.566;19.012;2023-05-10T01:01:14;3.83;;;2.90;;
79361;SDS011;68830;47.566;19.012;2023-05-10T01:04:16;3.35;;;2.53;;
79361;SDS011;68830;47.566;19.012;2023-05-10T01:07:19;3.75;;;2.50;;
79361;SDS011;68830;47.566;19.012;2023-05-10T01:10:22;4.60;;;2.72;;
79361;SDS011;68830;47.566;19.012;2023-05-10T01:13:27;3.03;;;2.33;;
79361;SDS011;68830;47.566;19.012;2023-05-10T01:16:34;4.82;;;2.95;;
79361;SDS011;68830;47.566;19.012;2023-05-10T01:19:38;3.13;;;2.58;;
79361;SDS011;68830;47.566;19.012;2023-05-10T01:22:45;4.18;;;2.75;;
79361;SDS011;68830;47.566;19.012;2023-05-10T01:26:17;2.92;;;2.40;;
79361;SDS011;68830;47.566;19.012;2023-05-10T01:29:49;3.55;;;2.80;;
79361;SDS011;68830;47.566;19.012;2023-05-10T01:33:24;4.13;;;2.85;;
79361;SDS011;68830;47.566;19.012;2023-05-10T01:36:31;3.08;;;2.58;;
79361;SDS011;68830;47.566;19.012;2023-05-10T01:39:37;4.88;;;2.42;;
79361;SDS011;68830;47.566;19.012;2023-05-10T01:42:47;2.75;;;2.33;;
79361;SDS011;68830;47.566;19.012;2023-05-10T01:45:56;4.72;;;2.58;;
79361;SDS011;68830;47.566;19.012;2023-05-10T01:49:07;3.28;;;2.67;;
79361;SDS011;68830;47.566;19.012;2023-05-10T01:52:14;4.00;;;2.80;;
79361;SDS011;68830;47.566;19.012;2023-05-10T01:55:20;4.00;;;3.28;;
79361;SDS011;68830;47.566;19.012;2023-05-10T01:58:31;3.63;;;2.78;;
79361;SDS011;68830;47.566;19.012;2023-05-10T02:01:35;4.95;;;3.00;;
79361;SDS011;68830;47.566;19.012;2023-05-10T02:04:40;5.85;;;3.03;;
79361;SDS011;68830;47.566;19.012;2023-05-10T02:07:43;3.00;;;2.63;;
79361;SDS011;68830;47.566;19.012;2023-05-10T02:10:46;3.33;;;2.67;;
79361;SDS011;68830;47.566;19.012;2023-05-10T02:13:51;2.95;;;2.53;;
79361;SDS011;68830;47.566;19.012;2023-05-10T02:16:55;3.28;;;2.90;;
79361;SDS011;68830;47.566;19.012;2023-05-10T02:20:01;3.22;;;2.45;;
79361;SDS011;68830;47.566;19.012;2023-05-10T02:23:05;3.25;;;2.65;;
79361;SDS011;68830;47.566;19.012;2023-05-10T02:26:10;3.90;;;2.88;;
79361;SDS011;68830;47.566;19.012;2023-05-10T02:29:14;4.97;;;2.67;;
79361;SDS011;68830;47.566;19.012;2023-05-10T02:32:18;3.95;;;3.03;;
79361;SDS011;68830;47.566;19.012;2023-05-10T02:35:22;3.05;;;2.45;;
79361;SDS011;68830;47.566;19.012;2023-05-10T02:38:25;2.92;;;2.63;;
79361;SDS011;68830;47.566;19.012;2023-05-10T02:41:28;5.32;;;2.50;;
79361;SDS011;68830;47.566;19.012;2023-05-10T02:44:33;5.20;;;3.03;;
79361;SDS011;68830;47.566;19.012;2023-05-10T02:47:38;5.68;;;3.00;;
79361;SDS011;68830;47.566;19.012;2023-05-10T02:50:42;3.47;;;2.63;;
79361;SDS011;68830;47.566;19.012;2023-05-10T02:53:46;4.35;;;3.05;;
79361;SDS011;68830;47.566;19.012;2023-05-10T02:56:50;4.97;;;2.95;;
79361;SDS011;68830;47.566;19.012;2023-05-10T02:59:55;3.13;;;2.63;;
79361;SDS011;68830;47.566;19.012;2023-05-10T03:02:57;2.92;;;2.63;;
79361;SDS011;68830;47.566;19.012;2023-05-10T03:06:01;3.63;;;2.88;;
79361;SDS011;68830;47.566;19.012;2023-05-10T03:09:03;3.67;;;2.90;;
79361;SDS011;68830;47.566;19.012;2023-05-10T03:12:07;3.70;;;2.70;;
79361;SDS011;68830;47.566;19.012;2023-05-10T03:15:18;4.07;;;3.60;;
79361;SDS011;68830;47.566;19.012;2023-05-10T03:18:28;3.78;;;2.90;;
79361;SDS011;68830;47.566;19.012;2023-05-10T03:21:36;3.50;;;2.72;;
79361;SDS011;68830;47.566;19.012;2023-05-10T03:24:43;3.25;;;2.63;;
79361;SDS011;68830;47.566;19.012;2023-05-10T03:27:48;3.30;;;2.83;;
79361;SDS011;68830;47.566;19.012;2023-05-10T03:30:51;4.20;;;2.65;;
79361;SDS011;68830;47.566;19.012;2023-05-10T03:33:54;3.38;;;2.97;;
79361;SDS011;68830;47.566;19.012;2023-05-10T03:36:57;4.30;;;3.40;;
79361;SDS011;68830;47.566;19.012;2023-05-10T03:40:00;3.20;;;2.90;;
79361;SDS011;68830;47.566;19.012;2023-05-10T03:43:02;3.60;;;3.10;;
79361;SDS011;68830;47.566;19.012;2023-05-10T03:46:04;5.18;;;3.20;;
79361;SDS011;68830;47.566;19.012;2023-05-10T03:49:07;5.03;;;3.10;;
79361;SDS011;68830;47.566;19.012;2023-05-10T03:52:11;3.83;;;3.35;;
79361;SDS011;68830;47.566;19.012;2023-05-10T03:55:13;4.78;;;3.10;;
79361;SDS011;68830;47.566;19.012;2023-05-10T03:58:15;4.03;;;2.97;;
79361;SDS011;68830;47.566;19.012;2023-05-10T04:01:17;3.80;;;2.90;;
79361;SDS011;68830;47.566;19.012;2023-05-10T04:04:19;3.25;;;2.72;;
79361;SDS011;68830;47.566;19.012;2023-05-10T04:07:24;4.78;;;3.10;;
79361;SDS011;68830;47.566;19.012;2023-05-10T04:10:26;3.78;;;3.38;;
79361;SDS011;68830;47.566;19.012;2023-05-10T04:13:28;3.33;;;2.90;;
79361;SDS011;68830;47.566;19.012;2023-05-10T04:16:30;5.28;;;3.03;;
79361;SDS011;68830;47.566;19.012;2023-05-10T04:19:32;3.20;;;2.78;;
79361;SDS011;68830;47.566;19.012;2023-05-10T04:22:36;6.30;;;3.67;;
79361;SDS011;68830;47.566;19.012;2023-05-10T04:25:38;3.25;;;2.95;;
79361;SDS011;68830;47.566;19.012;2023-05-10T04:28:40;4.25;;;3.38;;
79361;SDS011;68830;47.566;19.012;2023-05-10T04:31:42;3.42;;;3.13;;
79361;SDS011;68830;47.566;19.012;2023-05-10T04:34:44;5.50;;;3.30;;
79361;SDS011;68830;47.566;19.012;2023-05-10T04:37:47;4.10;;;3.53;;
79361;SDS011;68830;47.566;19.012;2023-05-10T04:40:49;3.70;;;3.30;;
79361;SDS011;68830;47.566;19.012;2023-05-10T04:43:51;3.65;;;3.33;;
79361;SDS011;68830;47.566;19.012;2023-05-10T04:46:53;4.55;;;2.85;;
79361;SDS011;68830;47.566;19.012;2023-05-10T04:49:55;4.53;;;3.60;;
79361;SDS011;68830;47.566;19.012;2023-05-10T04:52:58;5.03;;;3.13;;
79361;SDS011;68830;47.566;19.012;2023-05-10T04:56:00;4.68;;;3.00;;
79361;SDS011;68830;47.566;19.012;2023-05-10T04:59:03;3.58;;;3.17;;
79361;SDS011;68830;47.566;19.012;2023-05-10T05:02:05;6.15;;;4.20;;
79361;SDS011;68830;47.566;19.012;2023-05-10T05:05:07;4.55;;;3.58;;
79361;SDS011;68830;47.566;19.012;2023-05-10T05:08:10;4.70;;;3.20;;
79361;SDS011;68830;47.566;19.012;2023-05-10T05:11:12;4.70;;;3.17;;
79361;SDS011;68830;47.566;19.012;2023-05-10T05:14:15;3.45;;;3.15;;
79361;SDS011;68830;47.566;19.012;2023-05-10T05:17:17;3.53;;;3.05;;
79361;SDS011;68830;47.566;19.012;2023-05-10T05:20:19;3.58;;;3.25;;
79361;SDS011;68830;47.566;19.012;2023-05-10T05:23:23;4.78;;;3.67;;
79361;SDS011;68830;47.566;19.012;2023-05-10T05:26:26;3.60;;;3.08;;
79361;SDS011;68830;47.566;19.012;2023-05-10T05:29:28;3.70;;;3.40;;
79361;SDS011;68830;47.566;19.012;2023-05-10T05:32:30;3.95;;;3.55;;
79361;SDS011;68830;47.566;19.012;2023-05-10T05:35:32;3.78;;;3.22;;
79361;SDS011;68830;47.566;19.012;2023-05-10T05:38:36;4.18;;;3.45;;
79361;SDS011;68830;47.566;19.012;2023-05-10T05:41:38;3.80;;;3.30;;
79361;SDS011;68830;47.566;19.012;2023-05-10T05:44:40;3.90;;;3.00;;
79361;SDS011;68830;47.566;19.012;2023-05-10T05:47:42;3.85;;;3.45;;
79361;SDS011;68830;47.566;19.012;2023-05-10T05:50:44;5.75;;;3.20;;
79361;SDS011;68830;47.566;19.012;2023-05-10T05:53:48;7.15;;;4.00;;
79361;SDS011;68830;47.566;19.012;2023-05-10T05:56:50;4.65;;;2.80;;
79361;SDS011;68830;47.566;19.012;2023-05-10T05:59:52;3.60;;;3.30;;
79361;SDS011;68830;47.566;19.012;2023-05-10T06:02:54;5.25;;;4.75;;
79361;SDS011;68830;47.566;19.012;2023-05-10T06:05:57;4.82;;;3.95;;
79361;SDS011;68830;47.566;19.012;2023-05-10T06:09:00;5.40;;;4.22;;
79361;SDS011;68830;47.566;19.012;2023-05-10T06:12:02;4.47;;;4.05;;
79361;SDS011;68830;47.566;19.012;2023-05-10T06:15:04;4.90;;;4.13;;
79361;SDS011;68830;47.566;19.012;2023-05-10T06:18:07;4.80;;;4.22;;
79361;SDS011;68830;47.566;19.012;2023-05-10T06:21:09;5.25;;;4.75;;
79361;SDS011;68830;47.566;19.012;2023-05-10T06:24:12;4.40;;;4.03;;
79361;SDS011;68830;47.566;19.012;2023-05-10T06:27:14;4.75;;;4.28;;
79361;SDS011;68830;47.566;19.012;2023-05-10T06:30:16;9.48;;;4.53;;
79361;SDS011;68830;47.566;19.012;2023-05-10T06:33:18;8.10;;;4.30;;
79361;SDS011;68830;47.566;19.012;2023-05-10T06:36:20;4.03;;;3.47;;
79361;SDS011;68830;47.566;19.012;2023-05-10T06:39:23;4.28;;;3.78;;
79361;SDS011;68830;47.566;19.012;2023-05-10T06:42:26;5.50;;;4.05;;
79361;SDS011;68830;47.566;19.012;2023-05-10T06:45:28;5.30;;;3.88;;
79361;SDS011;68830;47.566;19.012;2023-05-10T06:48:30;3.42;;;3.03;;
79361;SDS011;68830;47.566;19.012;2023-05-10T06:51:32;3.95;;;3.63;;
79361;SDS011;68830;47.566;19.012;2023-05-10T06:54:36;4.28;;;3.88;;
79361;SDS011;68830;47.566;19.012;2023-05-10T06:57:38;3.97;;;3.58;;
79361;SDS011;68830;47.566;19.012;2023-05-10T07:00:40;4.30;;;3.90;;
79361;SDS011;68830;47.566;19.012;2023-05-10T07:03:44;4.20;;;3.80;;
79361;SDS011;68830;47.566;19.012;2023-05-10T07:06:46;4.80;;;3.58;;
79361;SDS011;68830;47.566;19.012;2023-05-10T07:09:50;4.03;;;3.63;;
79361;SDS011;68830;47.566;19.012;2023-05-10T07:12:52;4.10;;;3.47;;
79361;SDS011;68830;47.566;19.012;2023-05-10T07:15:54;4.18;;;3.75;;
79361;SDS011;68830;47.566;19.012;2023-05-10T07:18:56;4.95;;;4.45;;
79361;SDS011;68830;47.566;19.012;2023-05-10T07:21:59;3.97;;;3.58;;
79361;SDS011;68830;47.566;19.012;2023-05-10T07:25:02;3.97;;;3.58;;
79361;SDS011;68830;47.566;19.012;2023-05-10T07:28:05;4.45;;;3.78;;
79361;SDS011;68830;47.566;19.012;2023-05-10T07:31:07;4.15;;;3.75;;
79361;SDS011;68830;47.566;19.012;2023-05-10T07:34:09;4.43;;;4.03;;
79361;SDS011;68830;47.566;19.012;2023-05-10T07:37:12;4.93;;;4.43;;
79361;SDS011;68830;47.566;19.012;2023-05-10T07:40:15;4.97;;;3.97;;
79361;SDS011;68830;47.566;19.012;2023-05-10T07:43:18;4.22;;;3.72;;
79361;SDS011;68830;47.566;19.012;2023-05-10T07:46:19;3.92;;;3.60;;
79361;SDS011;68830;47.566;19.012;2023-05-10T07:49:22;5.13;;;4.15;;
79361;SDS011;68830;47.566;19.012;2023-05-10T07:52:25;2.97;;;2.67;;
79361;SDS011;68830;47.566;19.012;2023-05-10T07:55:29;3.85;;;3.45;;
79361;SDS011;68830;47.566;19.012;2023-05-10T07:58:31;6.57;;;3.60;;
79361;SDS011;68830;47.566;19.012;2023-05-10T08:01:34;4.68;;;4.25;;
79361;SDS011;68830;47.566;19.012;2023-05-10T08:04:36;5.88;;;3.25;;
79361;SDS011;68830;47.566;19.012;2023-05-10T08:07:39;3.00;;;2.70;;
79361;SDS011;68830;47.566;19.012;2023-05-10T08:10:42;4.15;;;3.75;;
79361;SDS011;68830;47.566;19.012;2023-05-10T08:13:44;3.88;;;3.58;;
79361;SDS011;68830;47.566;19.012;2023-05-10T08:16:46;4.47;;;4.07;;
79361;SDS011;68830;47.566;19.012;2023-05-10T08:19:48;4.05;;;2.88;;
79361;SDS011;68830;47.566;19.012;2023-05-10T08:22:50;3.58;;;2.95;;
79361;SDS011;68830;47.566;19.012;2023-05-10T08:25:54;3.72;;;3.30;;
79361;SDS011;68830;47.566;19.012;2023-05-10T08:28:56;3.95;;;3.65;;
79361;SDS011;68830;47.566;19.012;2023-05-10T08:31:58;3.53;;;3.22;;
79361;SDS011;68830;47.566;19.012;2023-05-10T08:35:03;3.60;;;3.30;;
79361;SDS011;68830;47.566;19.012;2023-05-10T08:38:05;3.58;;;3.10;;
79361;SDS011;68830;47.566;19.012;2023-05-10T08:41:09;3.17;;;2.88;;
79361;SDS011;68830;47.566;19.012;2023-05-10T08:47:15;3.88;;;2.90;;
79361;SDS011;68830;47.566;19.012;2023-05-10T08:53:21;3.20;;;2.83;;
79361;SDS011;68830;47.566;19.012;2023-05-10T08:56:29;3.35;;;3.03;;
79361;SDS011;68830;47.566;19.012;2023-05-10T08:59:31;2.88;;;2.67;;
79361;SDS011;68830;47.566;19.012;2023-05-10T09:02:35;4.15;;;2.90;;
79361;SDS011;68830;47.566;19.012;2023-05-10T09:05:38;3.30;;;3.00;;
79361;SDS011;68830;47.566;19.012;2023-05-10T09:08:41;3.50;;;3.17;;
79361;SDS011;68830;47.566;19.012;2023-05-10T09:11:45;4.53;;;3.45;;
79361;SDS011;68830;47.566;19.012;2023-05-10T09:14:47;4.05;;;2.90;;
79361;SDS011;68830;47.566;19.012;2023-05-10T09:17:52;4.13;;;3.35;;
79361;SDS011;68830;47.566;19.012;2023-05-10T09:20:54;3.80;;;3.28;;
79361;SDS011;68830;47.566;19.012;2023-05-10T09:23:56;3.35;;;3.05;;
79361;SDS011;68830;47.566;19.012;2023-05-10T09:26:59;3.35;;;2.70;;
79361;SDS011;68830;47.566;19.012;2023-05-10T09:30:04;3.75;;;2.97;;
79361;SDS011;68830;47.566;19.012;2023-05-10T09:33:07;3.22;;;2.92;;
79361;SDS011;68830;47.566;19.012;2023-05-10T09:36:09;2.65;;;2.45;;
79361;SDS011;68830;47.566;19.012;2023-05-10T09:39:12;5.35;;;2.70;;
79361;SDS011;68830;47.566;19.012;2023-05-10T09:42:17;4.55;;;3.13;;
79361;SDS011;68830;47.566;19.012;2023-05-10T09:45:19;4.15;;;3.05;;
79361;SDS011;68830;47.566;19.012;2023-05-10T09:48:23;2.53;;;2.33;;
79361;SDS011;68830;47.566;19.012;2023-05-10T09:51:26;3.75;;;3.00;;
79361;SDS011;68830;47.566;19.012;2023-05-10T09:54:30;2.88;;;2.67;;
79361;SDS011;68830;47.566;19.012;2023-05-10T09:57:34;6.30;;;2.78;;
79361;SDS011;68830;47.566;19.012;2023-05-10T10:00:37;3.30;;;3.00;;
79361;SDS011;68830;47.566;19.012;2023-05-10T10:03:41;3.00;;;2.50;;
79361;SDS011;68830;47.566;19.012;2023-05-10T10:06:44;3.00;;;2.70;;
79361;SDS011;68830;47.566;19.012;2023-05-10T10:09:46;3.42;;;3.10;;
79361;SDS011;68830;47.566;19.012;2023-05-10T10:12:50;4.75;;;2.63;;
79361;SDS011;68830;47.566;19.012;2023-05-10T10:15:52;4.38;;;3.00;;
79361;SDS011;68830;47.566;19.012;2023-05-10T10:18:56;3.58;;;2.60;;
79361;SDS011;68830;47.566;19.012;2023-05-10T10:21:58;3.53;;;2.47;;
79361;SDS011;68830;47.566;19.012;2023-05-10T10:25:00;3.70;;;3.30;;
79361;SDS011;68830;47.566;19.012;2023-05-10T10:28:10;4.60;;;2.83;;
79361;SDS011;68830;47.566;19.012;2023-05-10T10:31:25;3.78;;;3.08;;
79361;SDS011;68830;47.566;19.012;2023-05-10T10:34:32;2.80;;;2.35;;
79361;SDS011;68830;47.566;19.012;2023-05-10T10:37:42;2.35;;;2.15;;
79361;SDS011;68830;47.566;19.012;2023-05-10T10:40:45;3.40;;;2.90;;
79361;SDS011;68830;47.566;19.012;2023-05-10T10:43:48;4.03;;;2.80;;
79361;SDS011;68830;47.566;19.012;2023-05-10T10:47:00;4.03;;;2.60;;
79361;SDS011;68830;47.566;19.012;2023-05-10T10:50:05;3.55;;;2.40;;
79361;SDS011;68830;47.566;19.012;2023-05-10T10:53:10;4.25;;;3.10;;
79361;SDS011;68830;47.566;19.012;2023-05-10T10:56:12;3.13;;;2.28;;
79361;SDS011;68830;47.566;19.012;2023-05-10T10:59:27;2.45;;;2.13;;
79361;SDS011;68830;47.566;19.012;2023-05-10T11:02:33;3.67;;;2.53;;
79361;SDS011;68830;47.566;19.012;2023-05-10T11:05:37;2.10;;;1.88;;
79361;SDS011;68830;47.566;19.012;2023-05-10T11:08:41;2.67;;;2.20;;
79361;SDS011;68830;47.566;19.012;2023-05-10T11:11:51;3.00;;;2.00;;
79361;SDS011;68830;47.566;19.012;2023-05-10T11:14:58;2.00;;;1.70;;
79361;SDS011;68830;47.566;19.012;2023-05-10T11:18:01;2.00;;;1.80;;
79361;SDS011;68830;47.566;19.012;2023-05-10T11:21:19;2.17;;;1.90;;
79361;SDS011;68830;47.566;19.012;2023-05-10T11:24:22;2.42;;;2.22;;
79361;SDS011;68830;47.566;19.012;2023-05-10T11:27:24;2.40;;;2.20;;
79361;SDS011;68830;47.566;19.012;2023-05-10T11:30:28;4.95;;;1.95;;
79361;SDS011;68830;47.566;19.012;2023-05-10T11:33:36;3.40;;;2.40;;
79361;SDS011;68830;47.566;19.012;2023-05-10T11:36:44;2.22;;;2.03;;
79361;SDS011;68830;47.566;19.012;2023-05-10T11:39:54;2.95;;;2.20;;
79361;SDS011;68830;47.566;19.012;2023-05-10T11:42:56;2.88;;;2.58;;
79361;SDS011;68830;47.566;19.012;2023-05-10T11:45:59;2.47;;;2.15;;
79361;SDS011;68830;47.566;19.012;2023-05-10T11:49:01;2.50;;;2.03;;
79361;SDS011;68830;47.566;19.012;2023-05-10T11:52:06;2.25;;;2.05;;
79361;SDS011;68830;47.566;19.012;2023-05-10T11:55:09;2.30;;;2.10;;
79361;SDS011;68830;47.566;19.012;2023-05-10T11:58:11;2.55;;;2.08;;
79361;SDS011;68830;47.566;19.012;2023-05-10T12:01:14;2.38;;;2.17;;
79361;SDS011;68830;47.566;19.012;2023-05-10T12:04:16;1.80;;;1.67;;
79361;SDS011;68830;47.566;19.012;2023-05-10T12:07:18;2.78;;;2.10;;
79361;SDS011;68830;47.566;19.012;2023-05-10T12:10:25;1.98;;;1.73;;
79361;SDS011;68830;47.566;19.012;2023-05-10T12:13:28;3.33;;;1.90;;
79361;SDS011;68830;47.566;19.012;2023-05-10T12:16:31;2.92;;;2.20;;
79361;SDS011;68830;47.566;19.012;2023-05-10T12:19:37;2.67;;;2.30;;
79361;SDS011;68830;47.566;19.012;2023-05-10T12:22:39;2.20;;;2.00;;
79361;SDS011;68830;47.566;19.012;2023-05-10T12:25:42;2.13;;;1.92;;
79361;SDS011;68830;47.566;19.012;2023-05-10T12:28:44;3.17;;;2.10;;
79361;SDS011;68830;47.566;19.012;2023-05-10T12:31:51;2.70;;;2.05;;
79361;SDS011;68830;47.566;19.012;2023-05-10T12:34:55;4.10;;;2.08;;
79361;SDS011;68830;47.566;19.012;2023-05-10T12:37:59;2.88;;;1.83;;
79361;SDS011;68830;47.566;19.012;2023-05-10T12:41:02;2.10;;;1.83;;
79361;SDS011;68830;47.566;19.012;2023-05-10T12:44:05;3.45;;;2.30;;
79361;SDS011;68830;47.566;19.012;2023-05-10T12:47:09;5.22;;;2.00;;
79361;SDS011;68830;47.566;19.012;2023-05-10T12:50:12;1.92;;;1.63;;
79361;SDS011;68830;47.566;19.012;2023-05-10T12:53:14;3.97;;;2.22;;
79361;SDS011;68830;47.566;19.012;2023-05-10T12:56:17;2.00;;;1.77;;
79361;SDS011;68830;47.566;19.012;2023-05-10T12:59:19;4.43;;;1.85;;
79361;SDS011;68830;47.566;19.012;2023-05-10T13:02:22;2.90;;;1.80;;
79361;SDS011;68830;47.566;19.012;2023-05-10T13:05:25;2.67;;;1.88;;
79361;SDS011;68830;47.566;19.012;2023-05-10T13:08:27;4.18;;;2.17;;
79361;SDS011;68830;47.566;19.012;2023-05-10T13:11:30;1.40;;;1.30;;
79361;SDS011;68830;47.566;19.012;2023-05-10T13:14:32;2.70;;;1.92;;
79361;SDS011;68830;47.566;19.012;2023-05-10T13:17:36;2.85;;;2.42;;
79361;SDS011;68830;47.566;19.012;2023-05-10T13:20:41;1.70;;;1.60;;
79361;SDS011;68830;47.566;19.012;2023-05-10T13:23:44;5.03;;;2.03;;
79361;SDS011;68830;47.566;19.012;2023-05-10T13:26:46;1.70;;;1.60;;
79361;SDS011;68830;47.566;19.012;2023-05-10T13:29:48;2.50;;;2.10;;
79361;SDS011;68830;47.566;19.012;2023-05-10T13:32:51;2.90;;;1.98;;
79361;SDS011;68830;47.566;19.012;2023-05-10T13:35:54;2.45;;;1.80;;
79361;SDS011;68830;47.566;19.012;2023-05-10T13:38:56;2.38;;;1.67;;
79361;SDS011;68830;47.566;19.012;2023-05-10T13:41:58;2.50;;;2.00;;
79361;SDS011;68830;47.566;19.012;2023-05-10T13:45:00;2.60;;;1.60;;
79361;SDS011;68830;47.566;19.012;2023-05-10T13:48:04;2.47;;;1.80;;
79361;SDS011;68830;47.566;19.012;2023-05-10T13:51:08;1.60;;;1.50;;
79361;SDS011;68830;47.566;19.012;2023-05-10T13:54:09;3.25;;;2.00;;
79361;SDS011;68830;47.566;19.012;2023-05-10T13:57:13;1.90;;;1.70;;
79361;SDS011;68830;47.566;19.012;2023-05-10T14:00:18;1.60;;;1.48;;
79361;SDS011;68830;47.566;19.012;2023-05-10T14:03:21;1.88;;;1.70;;
79361;SDS011;68830;47.566;19.012;2023-05-10T14:06:24;3.40;;;1.65;;
79361;SDS011;68830;47.566;19.012;2023-05-10T14:09:25;4.45;;;1.70;;
79361;SDS011;68830;47.566;19.012;2023-05-10T14:12:27;1.90;;;1.60;;
79361;SDS011;68830;47.566;19.012;2023-05-10T14:15:29;2.03;;;1.83;;
79361;SDS011;68830;47.566;19.012;2023-05-10T14:18:32;4.70;;;1.80;;
79361;SDS011;68830;47.566;19.012;2023-05-10T14:21:35;2.05;;;1.52;;
79361;SDS011;68830;47.566;19.012;2023-05-10T14:24:37;2.10;;;1.63;;
79361;SDS011;68830;47.566;19.012;2023-05-10T14:27:40;1.63;;;1.45;;
79361;SDS011;68830;47.566;19.012;2023-05-10T14:30:42;1.85;;;1.58;;
79361;SDS011;68830;47.566;19.012;2023-05-10T14:33:45;2.60;;;1.90;;
79361;SDS011;68830;47.566;19.012;2023-05-10T14:36:47;3.25;;;1.80;;
79361;SDS011;68830;47.566;19.012;2023-05-10T14:39:50;1.67;;;1.58;;
79361;SDS011;68830;47.566;19.012;2023-05-10T14:42:51;2.97;;;1.75;;
79361;SDS011;68830;47.566;19.012;2023-05-10T14:45:55;1.52;;;1.40;;
79361;SDS011;68830;47.566;19.012;2023-05-10T14:48:58;2.42;;;2.00;;
79361;SDS011;68830;47.566;19.012;2023-05-10T14:52:00;1.40;;;1.30;;
79361;SDS011;68830;47.566;19.012;2023-05-10T14:55:03;2.28;;;1.65;;
79361;SDS011;68830;47.566;19.012;2023-05-10T14:58:05;3.35;;;1.90;;
79361;SDS011;68830;47.566;19.012;2023-05-10T15:01:07;2.90;;;1.73;;
79361;SDS011;68830;47.566;19.012;2023-05-10T15:04:11;2.30;;;1.90;;
79361;SDS011;68830;47.566;19.012;2023-05-10T15:07:15;3.05;;;1.80;;
79361;SDS011;68830;47.566;19.012;2023-05-10T15:10:18;1.85;;;1.67;;
79361;SDS011;68830;47.566;19.012;2023-05-10T15:13:20;1.50;;;1.40;;
79361;SDS011;68830;47.566;19.012;2023-05-10T15:16:22;2.70;;;2.05;;
79361;SDS011;68830;47.566;19.012;2023-05-10T15:19:26;1.60;;;1.50;;
79361;SDS011;68830;47.566;19.012;2023-05-10T15:22:28;1.98;;;1.35;;
79361;SDS011;68830;47.566;19.012;2023-05-10T15:25:33;1.80;;;1.50;;
79361;SDS011;68830;47.566;19.012;2023-05-10T15:28:36;1.33;;;1.23;;
79361;SDS011;68830;47.566;19.012;2023-05-10T15:31:38;2.10;;;1.45;;
79361;SDS011;68830;47.566;19.012;2023-05-10T15:34:43;11.20;;;1.98;;
79361;SDS011;68830;47.566;19.012;2023-05-10T15:37:45;2.70;;;1.40;;
79361;SDS011;68830;47.566;19.012;2023-05-10T15:40:48;1.63;;;1.52;;
79361;SDS011;68830;47.566;19.012;2023-05-10T15:43:50;2.05;;;1.40;;
79361;SDS011;68830;47.566;19.012;2023-05-10T15:46:52;1.02;;;0.98;;
79361;SDS011;68830;47.566;19.012;2023-05-10T15:49:56;2.28;;;1.80;;
79361;SDS011;68830;47.566;19.012;2023-05-10T15:52:58;2.05;;;1.65;;
79361;SDS011;68830;47.566;19.012;2023-05-10T15:56:00;1.83;;;1.50;;
79361;SDS011;68830;47.566;19.012;2023-05-10T15:59:02;2.15;;;1.60;;
79361;SDS011;68830;47.566;19.012;2023-05-10T16:02:06;2.22;;;1.92;;
79361;SDS011;68830;47.566;19.012;2023-05-10T16:05:10;2.00;;;1.30;;
79361;SDS011;68830;47.566;19.012;2023-05-10T16:08:14;3.83;;;1.80;;
79361;SDS011;68830;47.566;19.012;2023-05-10T16:11:16;1.73;;;1.63;;
79361;SDS011;68830;47.566;19.012;2023-05-10T16:14:18;2.30;;;2.03;;
79361;SDS011;68830;47.566;19.012;2023-05-10T16:17:23;2.88;;;2.10;;
79361;SDS011;68830;47.566;19.012;2023-05-10T16:20:27;2.60;;;2.15;;
79361;SDS011;68830;47.566;19.012;2023-05-10T16:23:30;2.67;;;1.77;;
79361;SDS011;68830;47.566;19.012;2023-05-10T16:26:32;3.13;;;1.90;;
79361;SDS011;68830;47.566;19.012;2023-05-10T16:29:41;2.13;;;1.77;;
79361;SDS011;68830;47.566;19.012;2023-05-10T16:32:42;1.70;;;1.60;;
79361;SDS011;68830;47.566;19.012;2023-05-10T16:35:47;2.35;;;2.00;;
79361;SDS011;68830;47.566;19.012;2023-05-10T16:38:49;2.05;;;1.55;;
79361;SDS011;68830;47.566;19.012;2023-05-10T16:41:51;1.92;;;1.73;;
79361;SDS011;68830;47.566;19.012;2023-05-10T16:44:53;3.30;;;1.75;;
79361;SDS011;68830;47.566;19.012;2023-05-10T16:47:55;1.88;;;1.58;;
79361;SDS011;68830;47.566;19.012;2023-05-10T16:50:58;3.08;;;2.00;;
79361;SDS011;68830;47.566;19.012;2023-05-10T16:54:03;3.67;;;1.70;;
79361;SDS011;68830;47.566;19.012;2023-05-10T16:57:05;2.00;;;1.80;;
79361;SDS011;68830;47.566;19.012;2023-05-10T17:00:09;3.13;;;2.22;;
79361;SDS011;68830;47.566;19.012;2023-05-10T17:03:12;1.60;;;1.50;;
79361;SDS011;68830;47.566;19.012;2023-05-10T17:06:16;7.13;;;2.78;;
79361;SDS011;68830;47.566;19.012;2023-05-10T17:09:17;3.38;;;2.35;;
79361;SDS011;68830;47.566;19.012;2023-05-10T17:12:21;4.18;;;2.28;;
79361;SDS011;68830;47.566;19.012;2023-05-10T17:15:23;2.63;;;2.05;;
79361;SDS011;68830;47.566;19.012;2023-05-10T17:18:25;3.20;;;2.42;;
79361;SDS011;68830;47.566;19.012;2023-05-10T17:21:29;2.63;;;2.22;;
79361;SDS011;68830;47.566;19.012;2023-05-10T17:24:32;4.20;;;3.08;;
79361;SDS011;68830;47.566;19.012;2023-05-10T17:27:34;2.42;;;1.88;;
79361;SDS011;68830;47.566;19.012;2023-05-10T17:30:36;3.03;;;2.33;;
79361;SDS011;68830;47.566;19.012;2023-05-10T17:33:38;2.80;;;2.38;;
79361;SDS011;68830;47.566;19.012;2023-05-10T17:36:41;2.40;;;2.03;;
79361;SDS011;68830;47.566;19.012;2023-05-10T17:39:44;3.58;;;2.42;;
79361;SDS011;68830;47.566;19.012;2023-05-10T17:42:46;6.28;;;2.40;;
79361;SDS011;68830;47.566;19.012;2023-05-10T17:45:49;2.35;;;1.77;;
79361;SDS011;68830;47.566;19.012;2023-05-10T17:48:51;2.38;;;1.98;;
79361;SDS011;68830;47.566;19.012;2023-05-10T17:51:54;3.40;;;2.63;;
79361;SDS011;68830;47.566;19.012;2023-05-10T17:54:58;2.92;;;2.17;;
79361;SDS011;68830;47.566;19.012;2023-05-10T17:58:00;3.55;;;2.28;;
79361;SDS011;68830;47.566;19.012;2023-05-10T18:01:02;4.53;;;2.58;;
79361;SDS011;68830;47.566;19.012;2023-05-10T18:04:05;3.03;;;2.20;;
79361;SDS011;68830;47.566;19.012;2023-05-10T18:07:09;2.92;;;2.42;;
79361;SDS011;68830;47.566;19.012;2023-05-10T18:10:11;5.93;;;3.03;;
79361;SDS011;68830;47.566;19.012;2023-05-10T18:13:13;3.75;;;2.60;;